Townsend, VA (23443)

1:11 AM EDT on August 28, 2016 (GMT -0400)
Strawberry Street | | Change Station

Elev 0 ft 37.27 °N, 76.02 °W | Updated 2 minutes ago

Mostly Cloudy
Mostly Cloudy
77.0 °F
Feels Like 78 °F
N
0.6
Wind Variable Wind from East
Gusts 2.5 mph

Today
High -- | Low -- °F
--% Chance of Precip.
Yesterday
High -- | Low -- °F
Precip. -- in
Pressure 30.18 in
Visibility 10.0 miles
Clouds Mostly Cloudy 1300 ft
Heat Index 78 °F
Dew Point 74 °F
Humidity 91%
Rainfall Not available.
Snow Depth Not available.
6:31 AM 7:37 PM
Waning Crescent, 18% visible
METAR KLFI 280458Z AUTO 06014KT 10SM BKN013 26/24 A3016 RMK AO2 SLP220 T02560235 403170247 $
Pressure 30.18 in
Visibility 10.0 miles
Clouds Mostly Cloudy 1300 ft
Heat Index 78 °F
Dew Point 74 °F
Humidity 91%
Rainfall Not available.
Snow Depth Not available.
6:31 AM 7:37 PM
Waning Crescent, 18% visible
METAR KLFI 280458Z AUTO 06014KT 10SM BKN013 26/24 A3016 RMK AO2 SLP220 T02560235 403170247 $

10-Day Weather Forecast

Almanac

Astronomy

Aug. 28, 2016 Rise Set
Actual Time
Civil Twilight
Nautical Twilight
Astronomical Twilight
Moon
Length of Visible Light
Length of Day
Tomorrow will be .
, % of the Moon is Illuminated

Today's Extremes

State Highs State Lows

Community

WunderPhotos

Upload Photos

1,935,531 photos uploaded!

WunderBlog® & News

Nearby

Air Quality

  Air Quality AQ Index Pollutant
Not available.

Snow Depth

Station Depth Elevation

Earthquake Activity

City Distance Mag. Time & Date
Minimum magnitude displayed is 2.5.

Coastal Water Temperatures

Place Temperature

Stations

Nearby Weather Stations

Station Location Temp. Windchill Dew Point Humidity Wind Precip. Elev Updated Type
                   

Watches & Warnings

There are currently no watches in effect.